This is the latest recevied weather packets stored in our database for station/object 9M2EVR-2. If no packets are shown the sender has not sent any weather packets the latest 10 day(s).
| Time | Temp. | Humidity | Pressure | Rain* | Wind** | Luminosity | Snow |
|---|---|---|---|---|---|---|---|
| 1777834070 | 41.67° C | 38% | 1006.6 hPa | - | - | - | - |
| 1777833169 | 42.22° C | 37% | 1006.6 hPa | - | - | - | - |
| 1777832268 | 43.33° C | 36% | 1006.7 hPa | - | - | - | - |
| 1777831368 | 43.89° C | 35% | 1007 hPa | - | - | - | - |
| 1777830467 | 44.44° C | 35% | 1007.1 hPa | - | - | - | - |
| 1777829566 | 44.44° C | 35% | 1007.3 hPa | - | - | - | - |
| 1777828665 | 45° C | 35% | 1007.3 hPa | - | - | - | - |
| 1777827764 | 44.44° C | 36% | 1007.5 hPa | - | - | - | - |
| 1777826864 | 44.44° C | 36% | 1007.6 hPa | - | - | - | - |
| 1777825963 | 44.44° C | 36% | 1007.7 hPa | - | - | - | - |
| 1777825062 | 43.89° C | 37% | 1008 hPa | - | - | - | - |
| 1777824161 | 43.89° C | 38% | 1008.1 hPa | - | - | - | - |
| 1777823260 | 42.78° C | 40% | 1008.2 hPa | - | - | - | - |
| 1777822359 | 40° C | 45% | 1008.2 hPa | - | - | - | - |
| 1777821459 | 35° C | 53% | 1008 hPa | - | - | - | - |
| 1777820568 | 35° C | 52% | 1007.8 hPa | - | - | - | - |
| 1777819657 | 35.56° C | 51% | 1007.9 hPa | - | - | - | - |
| 1777819325 | 35° C | 52% | 1007.7 hPa | - | - | - | - |
| 1777818425 | 35° C | 52% | 1007.6 hPa | - | - | - | - |
| 1777817524 | 35° C | 52% | 1007.3 hPa | - | - | - | - |
| 1777816623 | 35° C | 51% | 1007 hPa | - | - | - | - |
| 1777815722 | 35° C | 50% | 1006.8 hPa | - | - | - | - |
| 1777814821 | 35° C | 50% | 1006.8 hPa | - | - | - | - |
| 1777813920 | 35° C | 50% | 1006.6 hPa | - | - | - | - |
| 1777813020 | 36.11° C | 48% | 1006.4 hPa | - | - | - | - |
* Rain since midnight (hover to see other rain measurements)
** Current wind speed in m/s (hover to see current wind gust speed)